createdAt,value
2022-12-07T00:01:27.784Z,13.32
2022-12-07T00:04:30.653Z,16.00
2022-12-07T00:07:33.238Z,18.23
2022-12-07T00:10:36.224Z,14.25
2022-12-07T00:13:39.575Z,18.00
2022-12-07T00:16:44.499Z,14.75
2022-12-07T00:19:47.204Z,14.35
2022-12-07T00:22:50.131Z,13.48
2022-12-07T00:25:52.817Z,17.08
2022-12-07T00:28:59.729Z,12.27
2022-12-07T00:32:02.379Z,13.40
2022-12-07T00:35:05.748Z,16.85
2022-12-07T00:38:08.888Z,17.98
2022-12-07T00:41:20.481Z,13.00
2022-12-07T00:44:23.700Z,15.25
2022-12-07T00:47:26.534Z,16.95
2022-12-07T00:50:29.351Z,16.70
2022-12-07T00:53:41.117Z,14.70
2022-12-07T00:56:44.480Z,22.15
2022-12-07T00:59:47.437Z,25.52
2022-12-07T01:02:50.069Z,18.42
2022-12-07T01:05:57.796Z,16.00
2022-12-07T01:09:00.850Z,31.70
2022-12-07T01:12:03.905Z,39.00
2022-12-07T01:15:07.171Z,46.00
2022-12-07T01:18:10.074Z,40.38
2022-12-07T01:21:18.980Z,27.17
2022-12-07T01:24:21.876Z,29.37
2022-12-07T01:27:24.458Z,15.90
2022-12-07T01:30:27.331Z,24.90
2022-12-07T01:33:32.641Z,10.63
2022-12-07T01:36:37.175Z,11.48
2022-12-07T01:39:39.750Z,17.50
2022-12-07T01:42:42.624Z,14.15
2022-12-07T01:45:45.735Z,10.70
2022-12-07T01:48:48.952Z,13.10
2022-12-07T01:51:55.376Z,13.13
2022-12-07T01:55:02.556Z,14.73
2022-12-07T01:58:05.640Z,12.85
2022-12-07T02:01:08.552Z,14.38
2022-12-07T02:04:12.241Z,11.18
2022-12-07T02:07:14.947Z,14.87
2022-12-07T02:10:22.219Z,12.55
2022-12-07T02:13:29.429Z,14.40
2022-12-07T02:16:50.724Z,16.67
2022-12-07T02:20:07.337Z,10.88
2022-12-07T02:23:31.202Z,10.93
2022-12-07T02:26:44.628Z,11.98
2022-12-07T02:30:04.462Z,11.77
2022-12-07T02:33:16.125Z,11.43
2022-12-07T02:36:37.244Z,12.60
2022-12-07T02:39:49.604Z,11.20
2022-12-07T02:42:58.977Z,11.52
2022-12-07T02:46:07.403Z,12.95
2022-12-07T02:49:11.745Z,10.90
2022-12-07T02:52:14.371Z,11.85
2022-12-07T02:55:21.417Z,13.13
2022-12-07T02:58:40.570Z,12.52
2022-12-07T03:02:25.124Z,11.20
2022-12-07T03:05:33.590Z,15.23
2022-12-07T03:08:39.532Z,10.13
2022-12-07T03:11:48.242Z,12.65
2022-12-07T03:15:00.617Z,10.73
2022-12-07T03:18:05.836Z,10.65
2022-12-07T03:21:15.127Z,13.00
2022-12-07T03:24:21.958Z,14.10
2022-12-07T03:27:37.084Z,15.38
2022-12-07T03:30:53.743Z,11.52
2022-12-07T03:34:08.803Z,11.93
2022-12-07T03:37:31.152Z,10.57
2022-12-07T03:40:40.797Z,14.60
2022-12-07T03:43:43.758Z,15.90
2022-12-07T03:47:14.998Z,20.33
2022-12-07T03:50:41.284Z,19.60
2022-12-07T03:53:51.761Z,18.65
2022-12-07T03:56:56.835Z,16.58
2022-12-07T04:00:01.533Z,16.30
2022-12-07T04:03:14.741Z,14.93
2022-12-07T04:06:18.025Z,15.60
2022-12-07T04:09:21.332Z,16.65
2022-12-07T04:12:25.096Z,14.90
2022-12-07T04:15:28.076Z,17.58
2022-12-07T04:18:30.976Z,23.02
2022-12-07T04:21:33.492Z,12.90
2022-12-07T04:24:36.422Z,19.55
2022-12-07T04:27:39.241Z,13.52
2022-12-07T04:30:42.100Z,14.48
2022-12-07T04:33:44.638Z,17.17
2022-12-07T04:36:48.418Z,34.53
2022-12-07T04:39:51.157Z,15.95
2022-12-07T04:42:54.060Z,19.33
2022-12-07T04:45:56.655Z,22.50
2022-12-07T04:48:59.920Z,20.35
2022-12-07T04:52:02.561Z,13.32
2022-12-07T04:55:05.858Z,13.32
2022-12-07T04:58:08.422Z,14.15
2022-12-07T05:01:11.398Z,15.57
2022-12-07T05:04:14.336Z,15.35
2022-12-07T05:07:17.140Z,19.15
2022-12-07T05:10:19.921Z,15.13
2022-12-07T05:13:22.787Z,13.10
2022-12-07T05:16:25.500Z,11.63
2022-12-07T05:19:28.560Z,12.60
2022-12-07T05:22:31.221Z,15.38
2022-12-07T05:25:34.282Z,16.87
2022-12-07T05:28:36.913Z,11.05
2022-12-07T05:31:40.001Z,13.20
2022-12-07T05:34:42.782Z,12.35
2022-12-07T05:37:46.373Z,14.55
2022-12-07T05:40:49.059Z,14.00
2022-12-07T05:43:52.131Z,16.55
2022-12-07T05:46:54.860Z,16.00
2022-12-07T05:49:58.146Z,13.23
2022-12-07T05:53:01.104Z,15.32
2022-12-07T05:56:04.336Z,16.55
2022-12-07T05:59:25.279Z,17.50
2022-12-07T06:02:28.640Z,11.65
2022-12-07T06:05:31.802Z,13.75
2022-12-07T06:08:34.553Z,12.70
2022-12-07T06:11:56.294Z,11.07
2022-12-07T06:15:02.634Z,11.98
2022-12-07T06:18:12.122Z,12.52
2022-12-07T06:21:55.793Z,11.57
2022-12-07T06:24:59.007Z,16.75
2022-12-07T06:28:12.432Z,13.02
2022-12-07T06:31:16.264Z,14.87
2022-12-07T06:34:30.110Z,21.15
2022-12-07T06:38:38.091Z,16.50
2022-12-07T06:41:53.473Z,15.55
2022-12-07T06:44:56.573Z,16.87
2022-12-07T06:47:59.300Z,14.18
2022-12-07T06:51:02.574Z,13.77
2022-12-07T06:54:05.468Z,17.00
2022-12-07T06:57:08.392Z,16.27
2022-12-07T07:00:15.681Z,16.00
2022-12-07T07:03:23.637Z,21.67
2022-12-07T07:06:26.516Z,18.20
2022-12-07T07:09:29.539Z,17.45
2022-12-07T07:12:32.121Z,18.62
2022-12-07T07:15:35.881Z,13.62
2022-12-07T07:18:38.893Z,16.48
2022-12-07T07:21:41.917Z,12.60
2022-12-07T07:24:44.728Z,12.55
2022-12-07T07:27:47.568Z,15.45
2022-12-07T07:30:50.540Z,18.30
2022-12-07T07:33:53.875Z,16.87
2022-12-07T07:36:56.556Z,19.33
2022-12-07T07:39:59.799Z,18.90
2022-12-07T07:43:02.742Z,16.17
2022-12-07T07:46:05.928Z,19.33
2022-12-07T07:49:11.194Z,20.60
2022-12-07T07:52:14.416Z,15.93
2022-12-07T07:55:18.200Z,19.30
2022-12-07T07:58:22.269Z,17.62
2022-12-07T08:01:25.101Z,23.40
2022-12-07T08:04:28.182Z,17.83
2022-12-07T08:07:31.045Z,14.32
2022-12-07T08:10:35.793Z,16.30
2022-12-07T08:13:38.734Z,15.07
2022-12-07T08:16:41.648Z,14.60
2022-12-07T08:19:44.273Z,15.70
2022-12-07T08:22:47.149Z,13.55
2022-12-07T08:25:49.741Z,15.18
2022-12-07T08:28:54.010Z,14.98
2022-12-07T08:32:09.228Z,19.37
2022-12-07T08:35:12.908Z,18.20
2022-12-07T08:56:59.341Z,18.90
2022-12-07T09:00:05.238Z,17.27
2022-12-07T09:03:08.332Z,22.00
2022-12-07T09:06:11.737Z,19.17
2022-12-07T09:09:15.549Z,21.42
2022-12-07T09:12:25.067Z,20.58
2022-12-07T09:15:29.490Z,21.75
2022-12-07T09:18:33.142Z,22.05
2022-12-07T09:21:36.577Z,17.55
2022-12-07T09:24:45.600Z,15.45
2022-12-07T09:27:48.273Z,16.45
2022-12-07T09:31:22.092Z,23.60
2022-12-07T09:34:14.147Z,17.65
2022-12-07T09:37:17.097Z,24.00
2022-12-07T09:40:22.769Z,22.35
2022-12-07T09:43:27.089Z,21.67
2022-12-07T09:46:33.163Z,25.05
2022-12-07T09:49:36.512Z,21.23
2022-12-07T09:52:41.002Z,21.65
2022-12-07T09:55:44.657Z,15.90
2022-12-07T09:58:48.517Z,16.70
2022-12-07T10:01:51.897Z,15.70
2022-12-07T10:04:55.229Z,18.17
2022-12-07T10:07:57.952Z,19.37
2022-12-07T10:11:04.842Z,16.33
2022-12-07T10:14:14.941Z,14.23
2022-12-07T10:17:33.482Z,19.70
2022-12-07T10:20:36.395Z,15.65
2022-12-07T10:23:42.108Z,15.90
2022-12-07T10:26:47.636Z,12.27
2022-12-07T10:29:54.559Z,13.48
2022-12-07T10:32:57.219Z,16.83
2022-12-07T10:36:01.545Z,15.27
2022-12-07T10:39:14.885Z,14.60
2022-12-07T10:42:35.485Z,13.82
2022-12-07T10:46:14.743Z,14.55
2022-12-07T10:49:29.880Z,13.88
2022-12-07T10:53:10.188Z,13.10
2022-12-07T10:56:39.355Z,12.13
2022-12-07T11:00:18.987Z,12.83
2022-12-07T11:03:32.294Z,14.02
2022-12-07T11:07:12.041Z,13.20
2022-12-07T11:10:40.859Z,14.63
2022-12-07T11:14:17.884Z,18.12
2022-12-07T11:17:45.236Z,19.70
2022-12-07T11:21:11.458Z,21.23
2022-12-07T11:24:19.643Z,26.73
2022-12-07T11:27:44.751Z,16.70
2022-12-07T11:30:53.502Z,14.82
2022-12-07T11:34:07.704Z,14.27
2022-12-07T11:37:16.341Z,17.15
2022-12-07T11:40:31.650Z,11.70
2022-12-07T11:43:36.162Z,9.73
2022-12-07T11:46:57.284Z,20.58
2022-12-07T11:50:12.408Z,12.93
2022-12-07T11:53:22.662Z,9.85
2022-12-07T11:56:28.382Z,11.65
2022-12-07T11:59:39.465Z,14.05
2022-12-07T12:03:04.062Z,11.18
2022-12-07T12:06:08.012Z,8.10
2022-12-07T12:16:42.955Z,11.07
2022-12-07T12:19:58.311Z,12.27
2022-12-07T12:23:06.390Z,9.50
2022-12-07T12:26:17.552Z,13.88
2022-12-07T12:29:29.478Z,14.10
2022-12-07T12:32:45.401Z,10.63
2022-12-07T12:36:16.757Z,11.98
2022-12-07T12:39:21.840Z,17.73
2022-12-07T12:43:04.821Z,16.23
2022-12-07T12:46:36.150Z,16.37
2022-12-07T12:49:44.102Z,16.98
2022-12-07T12:53:03.273Z,11.60
2022-12-07T12:56:28.091Z,14.75
2022-12-07T12:59:55.757Z,13.00
2022-12-07T13:03:00.528Z,12.70
2022-12-07T13:06:18.784Z,13.85
2022-12-07T13:09:30.854Z,16.67
2022-12-07T13:12:34.220Z,17.40
2022-12-07T13:15:50.406Z,20.80
2022-12-07T13:18:53.359Z,16.73
2022-12-07T13:21:55.985Z,20.62
2022-12-07T13:25:06.363Z,16.33
2022-12-07T13:31:32.988Z,14.90
2022-12-07T13:34:40.529Z,12.32
2022-12-07T13:37:43.926Z,15.95
2022-12-07T13:41:01.981Z,25.20
2022-12-07T13:44:29.885Z,13.65
2022-12-07T13:48:00.321Z,8.23
2022-12-07T13:51:05.411Z,10.50
2022-12-07T13:54:14.032Z,9.40
2022-12-07T13:57:21.131Z,8.68
2022-12-07T14:01:08.293Z,16.42
2022-12-07T14:04:36.654Z,7.95
2022-12-07T14:07:58.161Z,7.80
2022-12-07T14:11:01.988Z,7.87
2022-12-07T14:14:06.186Z,6.85
2022-12-07T14:17:19.214Z,6.53
2022-12-07T14:20:34.429Z,5.85
2022-12-07T14:23:39.643Z,14.25
2022-12-07T14:26:42.441Z,16.42
2022-12-07T14:29:45.620Z,9.65
2022-12-07T14:32:54.588Z,6.97
2022-12-07T14:35:59.159Z,8.43
2022-12-07T14:39:02.221Z,11.15
2022-12-07T14:42:05.372Z,14.75
2022-12-07T14:45:15.722Z,15.30
2022-12-07T14:55:21.539Z,7.32
2022-12-07T14:58:24.166Z,12.68
2022-12-07T15:01:27.189Z,45.00
2022-12-07T15:04:29.983Z,57.85
2022-12-07T15:07:33.005Z,34.92
2022-12-07T15:10:39.641Z,18.73
2022-12-07T15:14:01.129Z,12.85
2022-12-07T15:17:09.141Z,7.55
2022-12-07T15:20:15.450Z,15.32
2022-12-07T15:23:18.189Z,13.52
2022-12-07T15:26:21.121Z,15.00
2022-12-07T15:29:24.287Z,10.98
2022-12-07T15:32:30.271Z,9.65
2022-12-07T15:35:33.007Z,10.73
2022-12-07T15:39:11.849Z,7.15
2022-12-07T15:41:59.844Z,9.80
2022-12-07T15:45:06.868Z,9.93
2022-12-07T15:51:32.891Z,9.80
2022-12-07T15:54:35.489Z,7.25
2022-12-07T15:57:39.622Z,8.77
2022-12-07T16:00:42.367Z,12.30
2022-12-07T16:03:46.262Z,26.62
2022-12-07T16:06:49.012Z,71.62
2022-12-07T16:09:52.038Z,90.03
2022-12-07T16:12:54.652Z,53.83
2022-12-07T16:15:58.358Z,79.78
2022-12-07T16:19:01.311Z,105.87
2022-12-07T16:22:05.310Z,50.47
2022-12-07T16:25:08.600Z,46.25
2022-12-07T16:28:11.654Z,31.25
2022-12-07T16:31:16.699Z,20.83
2022-12-07T16:34:19.965Z,29.30
2022-12-07T16:37:22.523Z,30.55
2022-12-07T16:40:25.421Z,32.67
2022-12-07T16:43:28.606Z,30.25
2022-12-07T16:46:34.062Z,35.75
2022-12-07T16:49:36.967Z,41.78
2022-12-07T16:52:39.903Z,58.87
2022-12-07T16:55:45.719Z,55.28
2022-12-07T16:58:50.264Z,43.42
2022-12-07T17:01:52.941Z,75.20
2022-12-07T17:04:55.860Z,81.15
2022-12-07T17:07:58.837Z,62.10
2022-12-07T17:11:01.759Z,43.75
2022-12-07T17:14:25.843Z,48.95
2022-12-07T17:17:28.849Z,38.55
2022-12-07T17:20:48.023Z,62.97
2022-12-07T17:23:52.234Z,53.00
2022-12-07T17:26:55.239Z,43.63
2022-12-07T17:29:58.501Z,39.13
2022-12-07T17:33:01.235Z,38.72
2022-12-07T17:36:22.889Z,36.60
2022-12-07T17:39:25.745Z,35.65
2022-12-07T17:42:37.897Z,40.42
2022-12-07T17:45:40.511Z,34.85
2022-12-07T17:48:43.515Z,32.83
2022-12-07T17:52:05.489Z,32.63
2022-12-07T17:55:08.837Z,26.92
2022-12-07T17:58:11.555Z,33.63
2022-12-07T18:01:14.548Z,31.42
2022-12-07T18:04:17.661Z,32.10
2022-12-07T18:07:20.459Z,24.42
2022-12-07T18:10:23.561Z,23.90
2022-12-07T18:13:38.489Z,20.55
2022-12-07T18:16:41.658Z,16.77
2022-12-07T18:19:44.964Z,20.23
2022-12-07T18:22:47.957Z,18.30
2022-12-07T18:25:51.653Z,24.75
2022-12-07T18:28:55.012Z,22.48
2022-12-07T18:31:57.790Z,30.10
2022-12-07T18:35:01.093Z,28.77
2022-12-07T18:38:03.969Z,30.65
2022-12-07T18:41:14.977Z,30.05
2022-12-07T18:44:18.129Z,25.08
2022-12-07T18:47:25.566Z,22.60
2022-12-07T18:50:32.189Z,21.23
2022-12-07T19:09:04.441Z,26.02
2022-12-07T19:12:12.076Z,27.02
2022-12-07T19:15:15.745Z,33.83
2022-12-07T19:18:18.734Z,22.20
2022-12-07T19:21:21.422Z,24.60
2022-12-07T19:24:24.424Z,20.58
2022-12-07T19:27:44.307Z,21.42
2022-12-07T19:31:47.480Z,25.90
2022-12-07T19:35:29.845Z,29.30
2022-12-07T19:39:17.378Z,44.83
2022-12-07T19:42:23.893Z,36.00
2022-12-07T19:45:34.797Z,29.05
2022-12-07T19:48:58.552Z,25.25
2022-12-07T19:52:21.928Z,36.85
2022-12-07T19:55:44.662Z,34.10
2022-12-07T19:59:09.914Z,32.95
2022-12-07T20:02:32.841Z,34.63
2022-12-07T20:05:36.647Z,34.22
2022-12-07T20:08:43.931Z,35.33
2022-12-07T20:12:46.757Z,30.50
2022-12-07T20:16:19.372Z,33.13
2022-12-07T20:19:32.647Z,33.33
2022-12-07T20:22:55.331Z,31.02
2022-12-07T20:26:05.061Z,53.08
2022-12-07T20:29:28.024Z,43.47
2022-12-07T20:32:33.039Z,53.75
2022-12-07T20:36:18.125Z,47.62
2022-12-07T20:39:45.171Z,27.80
2022-12-07T20:43:08.496Z,19.12
2022-12-07T20:46:51.665Z,27.15
2022-12-07T20:50:14.604Z,20.33
2022-12-07T20:53:57.886Z,23.83
2022-12-07T20:57:02.208Z,18.60
2022-12-07T21:00:25.185Z,22.08
2022-12-07T21:03:49.065Z,28.77
2022-12-07T21:07:12.891Z,14.18
2022-12-07T21:10:16.446Z,15.88
2022-12-07T21:13:41.147Z,18.08
2022-12-07T21:17:04.522Z,14.80
2022-12-07T21:20:36.337Z,16.92
2022-12-07T21:23:39.169Z,19.90
2022-12-07T21:26:44.307Z,18.42
2022-12-07T21:29:53.907Z,16.73
2022-12-07T21:32:58.263Z,16.15
2022-12-07T21:36:04.953Z,13.52
2022-12-07T21:39:09.004Z,21.08
2022-12-07T21:42:15.596Z,18.08
2022-12-07T21:46:21.425Z,18.17
2022-12-07T21:49:44.022Z,16.05
2022-12-07T21:53:23.715Z,16.55
2022-12-07T21:56:47.044Z,15.68
2022-12-07T21:59:50.936Z,16.95
2022-12-07T22:02:55.976Z,10.95
2022-12-07T22:06:19.752Z,15.70
2022-12-07T22:10:02.216Z,13.65
2022-12-07T22:13:46.602Z,16.45
2022-12-07T22:16:52.094Z,15.93
2022-12-07T22:20:23.430Z,23.50
2022-12-07T22:23:32.264Z,16.75
2022-12-07T22:26:35.971Z,17.42
2022-12-07T22:29:39.452Z,18.45
2022-12-07T22:32:48.948Z,18.55
2022-12-07T22:35:57.694Z,17.42
2022-12-07T22:42:32.240Z,22.25
2022-12-07T22:46:00.287Z,20.40
2022-12-07T22:49:28.484Z,27.08
2022-12-07T22:52:32.264Z,26.00
2022-12-07T22:55:52.008Z,24.73
2022-12-07T22:58:56.613Z,26.10
2022-12-07T23:02:00.223Z,20.30
2022-12-07T23:05:23.612Z,19.02
2022-12-07T23:08:26.994Z,21.73
2022-12-07T23:11:52.623Z,22.05
2022-12-07T23:14:55.556Z,22.48
2022-12-07T23:18:18.396Z,22.15
2022-12-07T23:21:21.630Z,22.20
2022-12-07T23:24:44.596Z,18.98
2022-12-07T23:27:50.007Z,30.10
2022-12-07T23:30:54.034Z,24.67
2022-12-07T23:33:56.981Z,21.70
2022-12-07T23:37:00.200Z,24.73
2022-12-07T23:40:04.156Z,29.33
2022-12-07T23:43:08.248Z,22.75
2022-12-07T23:46:15.471Z,25.60
2022-12-07T23:49:19.205Z,27.27
2022-12-07T23:52:22.160Z,24.73
2022-12-07T23:55:26.028Z,19.87
2022-12-07T23:58:28.990Z,21.75
